createdAt,value
2019-06-26T00:01:50.490Z,12.27
2019-06-26T00:04:18.815Z,11.37
2019-06-26T00:06:47.191Z,11.00
2019-06-26T00:09:15.672Z,12.47
2019-06-26T00:11:44.432Z,12.70
2019-06-26T00:14:12.762Z,12.07
2019-06-26T00:16:41.166Z,11.80
2019-06-26T00:19:09.579Z,11.27
2019-06-26T00:21:37.889Z,11.70
2019-06-26T00:24:06.282Z,12.77
2019-06-26T00:26:34.644Z,11.30
2019-06-26T00:29:03.169Z,11.70
2019-06-26T00:31:31.517Z,11.73
2019-06-26T00:33:59.894Z,12.00
2019-06-26T00:36:28.282Z,12.07
2019-06-26T00:38:56.621Z,13.30
2019-06-26T00:41:24.972Z,11.80
2019-06-26T00:43:53.571Z,12.10
2019-06-26T00:46:21.885Z,12.63
2019-06-26T00:48:50.264Z,12.60
2019-06-26T00:51:18.657Z,11.13
2019-06-26T00:53:46.963Z,12.17
2019-06-26T00:56:15.472Z,11.30
2019-06-26T00:58:43.789Z,11.43
2019-06-26T01:01:12.190Z,12.00
2019-06-26T01:03:40.489Z,12.07
2019-06-26T01:06:10.622Z,11.83
2019-06-26T01:08:38.937Z,11.37
2019-06-26T01:11:07.256Z,12.30
2019-06-26T01:13:35.637Z,12.17
2019-06-26T01:16:03.976Z,12.77
2019-06-26T01:18:32.285Z,12.60
2019-06-26T01:21:00.616Z,13.00
2019-06-26T01:23:28.986Z,13.10
2019-06-26T01:25:57.372Z,12.50
2019-06-26T01:28:25.751Z,13.37
2019-06-26T01:30:54.089Z,12.50
2019-06-26T01:33:22.390Z,13.27
2019-06-26T01:35:50.859Z,12.90
2019-06-26T01:38:19.159Z,13.80
2019-06-26T01:40:47.833Z,13.23
2019-06-26T01:43:16.137Z,13.20
2019-06-26T01:45:44.463Z,12.23
2019-06-26T01:48:12.853Z,12.27
2019-06-26T01:50:41.202Z,12.13
2019-06-26T01:53:09.515Z,12.33
2019-06-26T01:55:37.822Z,11.57
2019-06-26T01:58:06.153Z,12.40
2019-06-26T02:00:35.759Z,12.33
2019-06-26T02:03:04.082Z,11.90
2019-06-26T02:05:32.476Z,11.13
2019-06-26T02:08:00.864Z,12.60
2019-06-26T02:10:29.161Z,13.00
2019-06-26T02:12:57.584Z,12.63
2019-06-26T02:15:25.976Z,13.10
2019-06-26T02:17:54.471Z,12.17
2019-06-26T02:20:22.840Z,13.13
2019-06-26T02:22:51.193Z,13.40
2019-06-26T02:25:19.811Z,12.43
2019-06-26T02:27:48.124Z,13.53
2019-06-26T02:30:16.965Z,12.67
2019-06-26T02:32:45.319Z,13.97
2019-06-26T02:35:13.860Z,13.10
2019-06-26T02:37:42.244Z,12.40
2019-06-26T02:40:11.527Z,12.57
2019-06-26T02:42:39.979Z,12.57
2019-06-26T02:45:08.366Z,13.07
2019-06-26T02:47:36.681Z,13.17
2019-06-26T02:50:09.502Z,13.90
2019-06-26T02:52:37.927Z,14.13
2019-06-26T02:55:07.175Z,12.90
2019-06-26T02:57:35.546Z,13.20
2019-06-26T03:00:05.224Z,13.27
2019-06-26T03:02:33.658Z,12.80
2019-06-26T03:05:02.103Z,14.20
2019-06-26T03:07:30.807Z,15.10
2019-06-26T03:09:59.127Z,12.40
2019-06-26T03:12:27.444Z,13.80
2019-06-26T03:15:08.293Z,13.67
2019-06-26T03:17:25.900Z,13.73
2019-06-26T03:19:56.252Z,13.70
2019-06-26T03:22:24.587Z,13.40
2019-06-26T03:24:52.952Z,13.13
2019-06-26T03:27:21.316Z,14.60
2019-06-26T03:29:49.645Z,13.23
2019-06-26T03:32:18.067Z,12.40
2019-06-26T03:34:46.400Z,11.63
2019-06-26T03:37:14.789Z,13.03
2019-06-26T03:39:43.181Z,13.30
2019-06-26T03:42:11.622Z,12.10
2019-06-26T03:44:39.948Z,13.67
2019-06-26T03:47:08.582Z,12.90
2019-06-26T03:49:38.200Z,13.40
2019-06-26T03:52:06.640Z,14.10
2019-06-26T03:54:35.260Z,13.40
2019-06-26T03:57:03.593Z,13.33
2019-06-26T03:59:31.923Z,13.97
2019-06-26T04:02:00.225Z,13.67
2019-06-26T04:04:28.529Z,13.07
2019-06-26T04:06:56.866Z,13.50
2019-06-26T04:09:25.186Z,13.70
2019-06-26T04:11:53.580Z,13.67
2019-06-26T04:14:21.947Z,13.47
2019-06-26T04:16:50.392Z,13.70
2019-06-26T04:19:18.762Z,14.57
2019-06-26T04:21:47.078Z,14.20
2019-06-26T04:24:15.493Z,14.63
2019-06-26T04:26:43.895Z,14.43
2019-06-26T04:29:12.196Z,15.27
2019-06-26T04:31:40.634Z,15.53
2019-06-26T04:34:08.946Z,15.60
2019-06-26T04:36:37.269Z,14.13
2019-06-26T04:39:06.809Z,13.80
2019-06-26T04:41:35.196Z,14.67
2019-06-26T04:44:03.514Z,14.90
2019-06-26T04:46:31.845Z,14.90
2019-06-26T04:49:00.147Z,14.70
2019-06-26T04:51:28.553Z,14.77
2019-06-26T04:53:56.858Z,15.33
2019-06-26T04:56:25.214Z,15.43
2019-06-26T04:58:53.508Z,14.83
2019-06-26T05:01:21.928Z,15.10
2019-06-26T05:03:50.223Z,14.50
2019-06-26T05:06:18.619Z,15.20
2019-06-26T05:08:47.015Z,14.60
2019-06-26T05:11:15.323Z,14.57
2019-06-26T05:13:43.728Z,16.40
2019-06-26T05:16:15.810Z,17.20
2019-06-26T05:18:42.193Z,16.73
2019-06-26T05:21:10.572Z,16.67
2019-06-26T05:27:00.483Z,16.57
2019-06-26T05:29:28.795Z,17.03
2019-06-26T05:31:57.208Z,15.83
2019-06-26T05:34:25.524Z,15.60
2019-06-26T05:36:54.201Z,17.20
2019-06-26T05:39:22.527Z,16.97
2019-06-26T05:41:50.829Z,19.40
2019-06-26T05:44:19.247Z,17.03
2019-06-26T05:46:47.621Z,17.00
2019-06-26T05:49:15.995Z,15.60
2019-06-26T05:51:44.302Z,16.00
2019-06-26T05:54:12.749Z,15.93
2019-06-26T05:56:41.022Z,16.60
2019-06-26T05:59:09.443Z,16.00
2019-06-26T06:01:37.748Z,15.50
2019-06-26T06:04:06.098Z,15.87
2019-06-26T06:06:41.535Z,15.10
2019-06-26T06:09:07.380Z,15.17
2019-06-26T06:11:35.750Z,15.30
2019-06-26T06:14:04.100Z,16.43
2019-06-26T06:16:46.142Z,15.83
2019-06-26T06:19:03.022Z,15.90
2019-06-26T06:21:31.382Z,16.10
2019-06-26T06:23:59.724Z,18.23
2019-06-26T06:26:28.023Z,15.50
2019-06-26T06:28:56.370Z,15.30
2019-06-26T06:31:24.748Z,15.73
2019-06-26T06:33:53.279Z,16.10
2019-06-26T06:36:21.606Z,15.20
2019-06-26T06:38:49.934Z,14.10
2019-06-26T06:41:18.298Z,13.23
2019-06-26T06:43:46.785Z,13.00
2019-06-26T06:46:15.203Z,13.93
2019-06-26T06:48:43.587Z,13.70
2019-06-26T06:51:12.205Z,12.97
2019-06-26T06:53:40.578Z,13.60
2019-06-26T06:56:08.937Z,13.60
2019-06-26T06:58:37.293Z,13.63
2019-06-26T07:01:11.289Z,13.00
2019-06-26T07:03:39.603Z,12.63
2019-06-26T07:06:07.970Z,12.60
2019-06-26T07:08:36.269Z,12.40
2019-06-26T07:11:04.609Z,14.60
2019-06-26T07:13:32.998Z,12.60
2019-06-26T07:16:01.296Z,12.90
2019-06-26T07:18:29.589Z,13.23
2019-06-26T07:20:58.108Z,13.40
2019-06-26T07:23:26.437Z,12.63
2019-06-26T07:25:54.754Z,13.33
2019-06-26T07:28:23.111Z,11.93
2019-06-26T07:30:51.552Z,11.73
2019-06-26T07:33:19.949Z,12.60
2019-06-26T07:35:48.375Z,12.23
2019-06-26T07:38:16.699Z,13.00
2019-06-26T07:40:45.039Z,13.20
2019-06-26T07:43:16.408Z,11.13
2019-06-26T07:45:43.508Z,12.50
2019-06-26T07:48:11.814Z,14.83
2019-06-26T07:50:40.126Z,12.73
2019-06-26T07:53:08.561Z,12.43
2019-06-26T07:55:40.364Z,12.80
2019-06-26T07:58:07.031Z,12.80
2019-06-26T08:00:35.444Z,12.40
2019-06-26T08:03:04.609Z,12.60
2019-06-26T08:05:33.179Z,12.43
2019-06-26T08:08:01.581Z,12.60
2019-06-26T08:10:30.014Z,13.33
2019-06-26T08:12:58.356Z,13.17
2019-06-26T08:15:26.828Z,12.50
2019-06-26T08:18:00.674Z,12.70
2019-06-26T08:20:25.469Z,12.87
2019-06-26T08:22:53.781Z,13.43
2019-06-26T08:25:22.244Z,13.20
2019-06-26T08:27:50.646Z,12.80
2019-06-26T08:30:19.288Z,12.43
2019-06-26T08:32:47.628Z,13.40
2019-06-26T08:35:17.467Z,12.00
2019-06-26T08:37:45.865Z,13.60
2019-06-26T08:40:14.719Z,13.10
2019-06-26T08:42:43.111Z,13.00
2019-06-26T08:45:11.855Z,12.90
2019-06-26T08:47:40.297Z,13.47
2019-06-26T08:50:10.154Z,13.10
2019-06-26T08:52:38.617Z,12.50
2019-06-26T08:55:08.593Z,13.23
2019-06-26T08:57:37.389Z,13.30
2019-06-26T09:00:07.439Z,14.80
2019-06-26T09:02:35.821Z,15.60
2019-06-26T09:05:05.485Z,13.20
2019-06-26T09:07:34.162Z,13.40
2019-06-26T09:10:02.589Z,13.60
2019-06-26T09:12:30.968Z,13.40
2019-06-26T09:14:59.367Z,14.37
2019-06-26T09:17:27.672Z,12.63
2019-06-26T09:19:56.040Z,12.77
2019-06-26T09:22:25.111Z,12.50
2019-06-26T09:24:53.617Z,14.60
2019-06-26T09:27:21.948Z,13.93
2019-06-26T09:29:50.377Z,14.23
2019-06-26T09:32:18.677Z,14.43
2019-06-26T09:34:47.173Z,12.90
2019-06-26T09:37:15.572Z,15.10
2019-06-26T09:39:43.979Z,14.03
2019-06-26T09:42:12.347Z,14.70
2019-06-26T09:44:40.689Z,13.90
2019-06-26T09:47:09.134Z,15.10
2019-06-26T09:49:37.463Z,13.97
2019-06-26T09:52:05.861Z,13.43
2019-06-26T09:54:34.177Z,12.90
2019-06-26T09:57:02.562Z,13.50
2019-06-26T09:59:31.016Z,12.97
2019-06-26T10:01:59.467Z,15.30
2019-06-26T10:04:27.891Z,14.50
2019-06-26T10:06:56.295Z,13.27
2019-06-26T10:09:24.682Z,14.00
2019-06-26T10:11:53.100Z,13.80
2019-06-26T10:14:21.409Z,14.33
2019-06-26T10:16:49.786Z,14.77
2019-06-26T10:19:18.095Z,15.03
2019-06-26T10:21:46.567Z,16.37
2019-06-26T10:24:14.890Z,15.17
2019-06-26T10:26:43.339Z,16.53
2019-06-26T10:29:11.687Z,14.17
2019-06-26T10:31:40.643Z,14.97
2019-06-26T10:34:10.188Z,14.20
2019-06-26T10:36:38.734Z,14.47
2019-06-26T10:39:08.577Z,15.60
2019-06-26T10:41:36.889Z,15.07
2019-06-26T10:44:05.462Z,14.53
2019-06-26T10:46:34.023Z,13.13
2019-06-26T10:49:02.331Z,13.67
2019-06-26T10:51:30.690Z,13.50
2019-06-26T10:53:58.970Z,15.40
2019-06-26T10:56:28.856Z,14.17
2019-06-26T10:58:57.377Z,13.97
2019-06-26T11:01:25.812Z,14.30
2019-06-26T11:03:54.192Z,12.83
2019-06-26T11:06:22.746Z,12.20
2019-06-26T11:08:51.109Z,12.73
2019-06-26T11:11:19.414Z,12.20
2019-06-26T11:13:47.745Z,11.67
2019-06-26T11:16:16.041Z,11.80
2019-06-26T11:18:44.396Z,13.77
2019-06-26T11:21:12.770Z,13.43
2019-06-26T11:23:41.202Z,12.80
2019-06-26T11:26:09.830Z,12.53
2019-06-26T11:28:38.161Z,12.93
2019-06-26T11:31:06.537Z,14.97
2019-06-26T11:33:34.968Z,12.03
2019-06-26T11:36:03.362Z,12.00
2019-06-26T11:38:31.791Z,11.37
2019-06-26T11:41:01.940Z,12.10
2019-06-26T11:43:30.646Z,11.47
2019-06-26T11:45:59.119Z,11.37
2019-06-26T11:48:27.459Z,11.47
2019-06-26T11:50:55.813Z,10.70
2019-06-26T11:53:24.218Z,11.50
2019-06-26T11:55:52.651Z,10.87
2019-06-26T11:58:21.058Z,11.90
2019-06-26T12:00:49.377Z,11.60
2019-06-26T12:03:17.881Z,10.93
2019-06-26T12:05:46.182Z,11.23
2019-06-26T12:08:18.218Z,12.17
2019-06-26T12:10:44.736Z,11.73
2019-06-26T12:13:13.068Z,11.70
2019-06-26T12:15:41.463Z,11.83
2019-06-26T12:18:09.831Z,12.20
2019-06-26T12:20:38.846Z,11.93
2019-06-26T12:23:07.156Z,11.33
2019-06-26T12:25:35.552Z,11.87
2019-06-26T12:28:04.085Z,10.90
2019-06-26T12:30:32.588Z,10.50
2019-06-26T12:33:03.517Z,11.67
2019-06-26T12:35:31.095Z,10.77
2019-06-26T12:37:59.426Z,11.30
2019-06-26T12:40:31.062Z,10.63
2019-06-26T12:42:57.897Z,11.90
2019-06-26T12:45:26.262Z,12.07
2019-06-26T12:47:54.938Z,11.47
2019-06-26T12:50:34.738Z,11.53
2019-06-26T12:52:53.972Z,10.73
2019-06-26T12:55:22.299Z,10.70
2019-06-26T12:57:50.622Z,10.77
2019-06-26T13:00:19.413Z,11.47
2019-06-26T13:02:47.733Z,10.30
2019-06-26T13:05:16.818Z,11.70
2019-06-26T13:07:45.220Z,11.83
2019-06-26T13:10:13.937Z,11.37
2019-06-26T13:12:45.629Z,10.70
2019-06-26T13:15:12.651Z,9.93
2019-06-26T13:17:41.302Z,9.70
2019-06-26T13:20:10.797Z,10.00
2019-06-26T13:22:39.122Z,10.80
2019-06-26T13:25:08.565Z,10.77
2019-06-26T13:27:36.949Z,11.57
2019-06-26T13:30:06.882Z,10.70
2019-06-26T13:32:35.169Z,10.67
2019-06-26T13:35:04.528Z,9.77
2019-06-26T13:37:32.859Z,10.23
2019-06-26T13:40:01.381Z,9.23
2019-06-26T13:42:29.677Z,9.97
2019-06-26T13:44:58.101Z,9.57
2019-06-26T13:47:26.455Z,10.40
2019-06-26T13:49:54.792Z,10.70
2019-06-26T13:52:23.287Z,10.30
2019-06-26T13:54:51.614Z,9.23
2019-06-26T13:57:20.247Z,9.90
2019-06-26T13:59:48.724Z,9.67
2019-06-26T14:02:19.862Z,10.40
2019-06-26T14:04:47.187Z,10.83
2019-06-26T14:07:15.760Z,9.40
2019-06-26T14:09:44.048Z,9.57
2019-06-26T14:12:12.444Z,9.63
2019-06-26T14:14:56.761Z,8.93
2019-06-26T14:17:10.820Z,10.00
2019-06-26T14:19:39.155Z,9.30
2019-06-26T14:22:07.494Z,9.87
2019-06-26T14:24:35.814Z,9.67
2019-06-26T14:27:04.295Z,9.43
2019-06-26T14:29:32.692Z,9.60
2019-06-26T14:32:01.360Z,9.33
2019-06-26T14:34:30.292Z,9.70
2019-06-26T14:36:58.711Z,10.77
2019-06-26T14:39:27.107Z,10.07
2019-06-26T14:41:55.516Z,10.10
2019-06-26T14:44:23.842Z,9.90
2019-06-26T14:46:52.176Z,10.30
2019-06-26T14:49:20.541Z,10.93
2019-06-26T14:51:48.930Z,10.00
2019-06-26T14:54:17.372Z,10.83
2019-06-26T14:56:46.099Z,10.67
2019-06-26T14:59:14.429Z,9.80
2019-06-26T15:01:43.025Z,9.60
2019-06-26T15:04:11.358Z,9.73
2019-06-26T15:06:39.690Z,10.50
2019-06-26T15:09:08.087Z,9.97
2019-06-26T15:11:36.529Z,9.70
2019-06-26T15:14:04.964Z,10.00
2019-06-26T15:16:33.326Z,9.40
2019-06-26T15:19:01.671Z,11.17
2019-06-26T15:21:29.984Z,9.77
2019-06-26T15:23:58.327Z,10.30
2019-06-26T15:26:26.739Z,9.47
2019-06-26T15:28:55.109Z,10.50
2019-06-26T15:31:23.415Z,10.10
2019-06-26T15:33:51.759Z,9.50
2019-06-26T15:36:20.312Z,10.30
2019-06-26T15:38:48.740Z,10.03
2019-06-26T15:41:17.060Z,10.50
2019-06-26T15:43:45.391Z,9.83
2019-06-26T15:46:13.707Z,9.57
2019-06-26T15:48:42.126Z,10.10
2019-06-26T15:51:10.598Z,9.47
2019-06-26T15:53:38.991Z,10.27
2019-06-26T15:56:07.354Z,10.53
2019-06-26T15:58:35.730Z,10.40
2019-06-26T16:01:04.235Z,10.30
2019-06-26T16:03:32.699Z,9.80
2019-06-26T16:06:01.264Z,9.80
2019-06-26T16:08:29.630Z,10.80
2019-06-26T16:10:58.010Z,10.37
2019-06-26T16:13:26.358Z,10.33
2019-06-26T16:15:54.828Z,9.83
2019-06-26T16:18:25.125Z,9.50
2019-06-26T16:20:53.461Z,10.50
2019-06-26T16:23:21.802Z,10.03
2019-06-26T16:25:50.285Z,10.83
2019-06-26T16:28:18.585Z,9.83
2019-06-26T16:30:47.136Z,9.20
2019-06-26T16:33:15.530Z,11.80
2019-06-26T16:35:43.886Z,9.90
2019-06-26T16:38:12.197Z,10.17
2019-06-26T16:40:40.552Z,9.60
2019-06-26T16:43:09.016Z,9.50
2019-06-26T16:45:37.503Z,10.70
2019-06-26T16:48:05.812Z,9.93
2019-06-26T16:50:34.458Z,10.00
2019-06-26T16:53:02.824Z,10.13
2019-06-26T16:55:31.142Z,10.57
2019-06-26T16:57:59.489Z,9.77
2019-06-26T17:00:27.871Z,10.67
2019-06-26T17:02:56.447Z,10.73
2019-06-26T17:05:24.824Z,10.53
2019-06-26T17:07:53.231Z,10.00
2019-06-26T17:10:21.643Z,12.93
2019-06-26T17:12:50.045Z,10.07
2019-06-26T17:15:18.683Z,9.80
2019-06-26T17:17:47.018Z,10.43
2019-06-26T17:20:15.645Z,11.33
2019-06-26T17:22:44.098Z,10.83
2019-06-26T17:25:12.713Z,11.00
2019-06-26T17:27:41.149Z,10.53
2019-06-26T17:30:12.229Z,10.90
2019-06-26T17:32:41.221Z,10.80
2019-06-26T17:35:10.084Z,10.63
2019-06-26T17:37:38.757Z,10.37
2019-06-26T17:40:07.949Z,10.60
2019-06-26T17:42:36.433Z,9.80
2019-06-26T17:45:07.928Z,10.03
2019-06-26T17:47:36.444Z,9.87
2019-06-26T17:50:07.388Z,9.90
2019-06-26T17:52:38.421Z,10.60
2019-06-26T17:55:07.667Z,10.57
2019-06-26T17:57:36.109Z,10.20
2019-06-26T18:00:07.292Z,10.50
2019-06-26T18:02:35.649Z,10.83
2019-06-26T18:05:04.890Z,11.90
2019-06-26T18:07:33.316Z,11.40
2019-06-26T18:10:01.887Z,10.50
2019-06-26T18:12:30.300Z,10.90
2019-06-26T18:14:58.679Z,10.00
2019-06-26T18:17:27.164Z,10.40
2019-06-26T18:19:55.512Z,10.70
2019-06-26T18:22:23.973Z,10.60
2019-06-26T18:24:52.355Z,11.43
2019-06-26T18:27:22.357Z,10.10
2019-06-26T18:29:50.738Z,12.20
2019-06-26T18:32:19.295Z,10.23
2019-06-26T18:34:47.695Z,10.13
2019-06-26T18:37:16.170Z,11.07
2019-06-26T18:39:44.545Z,11.33
2019-06-26T18:42:13.012Z,12.00
2019-06-26T18:44:41.377Z,11.00
2019-06-26T18:47:09.805Z,10.00
2019-06-26T18:49:38.220Z,10.83
2019-06-26T18:52:07.810Z,10.67
2019-06-26T18:54:36.460Z,10.50
2019-06-26T18:57:04.825Z,11.07
2019-06-26T18:59:33.365Z,11.07
2019-06-26T19:02:01.663Z,11.30
2019-06-26T19:04:30.155Z,10.70
2019-06-26T19:06:58.886Z,12.10
2019-06-26T19:09:27.229Z,10.50
2019-06-26T19:11:55.616Z,10.27
2019-06-26T19:14:24.045Z,10.00
2019-06-26T19:16:52.443Z,11.10
2019-06-26T19:19:20.790Z,10.67
2019-06-26T19:21:49.163Z,12.90
2019-06-26T19:24:17.573Z,10.23
2019-06-26T19:26:50.831Z,10.93
2019-06-26T19:29:19.631Z,11.03
2019-06-26T19:31:48.036Z,12.97
2019-06-26T19:34:16.449Z,11.83
2019-06-26T19:36:49.972Z,12.40
2019-06-26T19:39:14.890Z,11.53
2019-06-26T19:41:43.366Z,12.60
2019-06-26T19:44:11.753Z,13.00
2019-06-26T19:46:42.016Z,12.20
2019-06-26T19:49:10.218Z,12.83
2019-06-26T19:51:38.585Z,12.50
2019-06-26T19:54:07.054Z,12.97
2019-06-26T19:56:35.515Z,13.20
2019-06-26T19:59:03.991Z,12.80
2019-06-26T20:01:32.340Z,12.40
2019-06-26T20:04:00.847Z,12.50
2019-06-26T20:06:29.207Z,12.50
2019-06-26T20:08:57.808Z,13.83
2019-06-26T20:11:26.120Z,13.00
2019-06-26T20:13:54.512Z,11.93
2019-06-26T20:16:22.984Z,12.60
2019-06-26T20:18:51.612Z,13.40
2019-06-26T20:21:20.030Z,13.00
2019-06-26T20:23:48.441Z,13.33
2019-06-26T20:26:16.862Z,13.40
2019-06-26T20:28:45.264Z,12.70
2019-06-26T20:31:13.602Z,12.47
2019-06-26T20:33:41.991Z,13.93
2019-06-26T20:36:10.412Z,13.23
2019-06-26T20:38:38.729Z,13.60
2019-06-26T20:41:07.159Z,13.23
2019-06-26T20:43:35.477Z,13.07
2019-06-26T20:46:03.998Z,13.13
2019-06-26T20:48:32.408Z,13.43
2019-06-26T20:51:00.883Z,13.47
2019-06-26T20:53:29.184Z,12.57
2019-06-26T20:55:57.620Z,13.73
2019-06-26T20:58:25.925Z,13.90
2019-06-26T21:00:54.337Z,14.10
2019-06-26T21:03:22.698Z,14.77
2019-06-26T21:05:51.109Z,13.70
2019-06-26T21:08:19.444Z,14.60
2019-06-26T21:10:47.763Z,14.80
2019-06-26T21:13:16.241Z,13.47
2019-06-26T21:15:44.626Z,15.87
2019-06-26T21:18:13.096Z,14.27
2019-06-26T21:20:41.423Z,15.37
2019-06-26T21:23:18.534Z,15.73
2019-06-26T21:25:39.962Z,15.10
2019-06-26T21:28:08.347Z,15.40
2019-06-26T21:30:36.737Z,14.90
2019-06-26T21:33:05.134Z,15.00
2019-06-26T21:35:33.442Z,17.33
2019-06-26T21:38:01.850Z,18.33
2019-06-26T21:40:30.253Z,24.10
2019-06-26T21:42:58.571Z,27.00
2019-06-26T21:45:26.947Z,23.40
2019-06-26T21:47:55.293Z,18.43
2019-06-26T21:50:23.756Z,18.30
2019-06-26T21:52:52.113Z,19.47
2019-06-26T21:55:33.351Z,20.90
2019-06-26T21:57:50.565Z,19.67
2019-06-26T22:00:20.600Z,18.40
2019-06-26T22:02:49.111Z,18.60
2019-06-26T22:05:17.903Z,16.87
2019-06-26T22:07:46.466Z,15.70
2019-06-26T22:10:15.530Z,15.80
2019-06-26T22:12:43.910Z,15.80
2019-06-26T22:15:12.350Z,15.73
2019-06-26T22:17:40.769Z,15.73
2019-06-26T22:20:12.568Z,13.97
2019-06-26T22:22:39.398Z,15.10
2019-06-26T22:25:08.303Z,14.93
2019-06-26T22:27:36.698Z,14.90
2019-06-26T22:30:09.021Z,15.00
2019-06-26T22:32:37.494Z,14.50
2019-06-26T22:35:07.344Z,15.20
2019-06-26T22:37:35.678Z,14.60
2019-06-26T22:40:06.002Z,15.50
2019-06-26T22:42:34.468Z,15.77
2019-06-26T22:45:02.814Z,15.60
2019-06-26T22:47:31.125Z,14.93
2019-06-26T22:49:59.557Z,15.47
2019-06-26T22:52:27.965Z,16.33
2019-06-26T22:54:56.357Z,16.10
2019-06-26T22:57:24.726Z,15.80
2019-06-26T22:59:53.073Z,15.00
2019-06-26T23:02:21.402Z,14.83
2019-06-26T23:04:49.736Z,15.03
2019-06-26T23:07:18.119Z,15.43
2019-06-26T23:09:46.611Z,15.90
2019-06-26T23:12:14.950Z,15.07
2019-06-26T23:14:43.314Z,15.60
2019-06-26T23:17:11.636Z,14.97
2019-06-26T23:19:40.036Z,14.10
2019-06-26T23:22:08.532Z,14.53
2019-06-26T23:24:38.688Z,15.73
2019-06-26T23:27:06.998Z,14.77
2019-06-26T23:29:35.370Z,15.90
2019-06-26T23:32:03.748Z,15.43
2019-06-26T23:34:32.100Z,14.50
2019-06-26T23:37:00.412Z,14.13
2019-06-26T23:39:28.761Z,16.17
2019-06-26T23:41:57.075Z,15.40
2019-06-26T23:44:25.492Z,15.73
2019-06-26T23:46:53.860Z,15.47
2019-06-26T23:49:22.278Z,15.13
2019-06-26T23:51:50.624Z,15.67
2019-06-26T23:54:18.965Z,15.50
2019-06-26T23:56:47.278Z,15.57
2019-06-26T23:59:15.597Z,16.30
